GMTT/TNG METAR and TAF weather

Enter ICAO airport designator
Station Type Date Time Source
GMTT METAR 2018/09/22 00:00 UTC NOAA

GMTT 220000Z 08010KT CAVOK 23/16 Q1017 NOSIG


Station Type Date Time Source
GMTT Decoded METAR 2018/09/22 00:00 UTC NOAA

Tanger Aerodrome , Morocco (GMTT) 35-44N 005-54W 21M
Sep 21, 2018 - 08:00 PM EDT / 2018.09.22 0000 UTC
Wind: from the E (080 degrees) at 12 MPH (10 KT):0
Visibility: greater than 7 mile(s):0
Temperature: 73 F (23 C)
Dew Point: 60 F (16 C)
Relative Humidity: 64%
Pressure (altimeter): 30.03 in. Hg (1017 hPa)
ob: GMTT 220000Z 08010KT CAVOK 23/16 Q1017 NOSIG
cycle: 0

Station Type Date Time Source
GMTT TAF 2018/09/21 18:18 UTC NOAA

TAF GMTT 211700Z 2118/2224 08014KT CAVOK
BECMG 2123/2201 10018G30KT


Example: see airport list